Accueil
METAR-TAF:

METAR-TAF

Aéroports :

Aéroport de Lannion-Côte de Granit

Lannion, France

latitude: 48-45N, longitude: 003-28W, altitude: 89 m

Observation

Le bulletin a été fait il y a 38 minutes, à 10:00 UTC
Vent 6 kt de est/nord-est, variant entre nord/nord-est et sud-est
Température 16°C
Humidité 77%
Pression 1032 hPa
Visibilité 10 km ou plus
Nuages épars à une hauteur de 1600 ft

METAR: LFRO 201000Z AUTO 07006KT 030V140 9999 SCT016 16/12 Q1032 NOSIG

Heure: 12:38 (10:38 UTC)

Prévision

Le bulletin a été fait il y a 5 heures et 38 minutes, à 05:00 UTC
Prévision valable du 20 à 06 UTC au 21 à 06 UTC
Vent 8 kt de nord-est
Visibilité 10 km ou plus
pas de nuages en-dessous de 1500 mètres et pas de cumulonimbus.
Probabilité 30% :
Temporairement
du 21 à 03 UTC au 21 à 06 UTC
Visibilité: 3000 m
Brouillard mince

TAF: LFRO 200500Z 2006/2106 04008KT CAVOK PROB30 TEMPO 2103/2106 3000 MIFG

Observations et prévisions météorologiques de plus de 4000 aéroports (messages METAR et TAF).

Les stations disponibles sont représentées par des disques jaunes et rouges sur la carte.

Passer la souris dessus pour voir le nom de la station.

Cliquer dessus pour voir les observations et prévisions météorologiques.

Pour changer de carte: cliquez sur les boutons verts avec une croix noire pour zoomer, sur le bouton vert avec un tiret pour effectuer un zoom arrière, ou sur les flèches vertes pour les cartes adjacentes.


METAR-TAF: